Aviation Digital Data Service (ADDS)

Output produced by METARs form (1217 UTC 19 January 2019)
found at http://www.aviationweather.gov/metar/data/
 
Forecast for: LEHC (HUESCA-PIRINEOS , ES)
Text: TAF LEHC 190800Z 1909/2009 VRB04KT 0300 FG VV001 TX08/1913Z TN01/2006Z
Forecast period: 0900 UTC 19 January 2019 to 0900 UTC 20 January 2019
Forecast type: FROM: standard forecast or significant change
Winds: variable direction winds at 5 MPH (4 knots; 2.1 m/s)
Visibility: 0.19 miles (0.31 km)
Ceiling: indefinite ceiling with vertical visibility of 100 feet AGL
Clouds: obscured sky
Weather: FG  (fog)
Text: TEMPO 1912/1918 6000 NSW
Forecast period: 1200 to 1800 UTC 19 January 2019
Forecast type: TEMPORARY: The following changes expected for less than half the time period
Visibility: 4 miles (6 km)
Ceiling: unknown
Clouds: missing
Weather: NSW  (no significant weather)
Text: TEMPO 1920/2009 0200 FG RA VV002
Forecast period: 2000 UTC 19 January 2019 to 0900 UTC 20 January 2019
Forecast type: TEMPORARY: The following changes expected for less than half the time period
Visibility: 0.12 miles (0.19 km)
Ceiling: indefinite ceiling with vertical visibility of 200 feet AGL
Clouds: obscured sky
Weather: FG RA  (fog, moderate rain)